Time;durP1;ratioP1;P1;durP2;ratioP2;P2;SDS_P1;SDS_P2;PMS_P1;PMS_P2;Temp;Humidity;BMP_temperature;BMP_pressure;BME280_temperature;BME280_humidity;BME280_pressure;Samples;Min_cycle;Max_cycle;Signal;HPM_P1;HPM_P2
2023/03/29 00:00:19;;;;;;;5.78;1.90;;;;;;;2.87;83.29;98889.66;4162123;28;20336;-72
2023/03/29 00:02:20;;;;;;;4.50;2.10;;;;;;;2.85;81.44;98886.44;4160510;28;20059;-72
2023/03/29 00:04:20;;;;;;;2.97;1.83;;;;;;;2.93;80.85;98877.44;4163367;28;20076;-72
2023/03/29 00:06:20;;;;;;;3.03;2.20;;;;;;;2.97;80.35;98873.75;4160346;28;20054;-72
2023/03/29 00:08:21;;;;;;;2.70;1.92;;;;;;;2.99;83.89;98868.78;4161808;28;20130;-72
2023/03/29 00:10:22;;;;;;;5.28;2.08;;;;;;;3.09;80.26;98865.75;4160319;28;20049;-72
2023/03/29 00:12:23;;;;;;;4.40;2.15;;;;;;;3.08;81.05;98857.88;4159675;28;20042;-72
2023/03/29 00:14:23;;;;;;;3.50;1.70;;;;;;;3.06;81.40;98862.81;4164816;28;20141;-72
2023/03/29 00:16:24;;;;;;;3.10;2.00;;;;;;;3.08;80.80;98860.59;4164633;28;20068;-72
2023/03/29 00:18:24;;;;;;;4.43;1.95;;;;;;;3.07;82.93;98859.00;4161479;28;20300;-72
2023/03/29 00:20:25;;;;;;;2.97;2.05;;;;;;;3.11;80.54;98857.22;4161636;28;20103;-72
2023/03/29 00:22:25;;;;;;;3.88;2.63;;;;;;;3.15;79.30;98868.34;4161285;28;20045;-72
2023/03/29 00:24:25;;;;;;;3.05;1.73;;;;;;;3.18;79.23;98870.41;4160613;28;20052;-72
2023/03/29 00:26:25;;;;;;;4.57;1.95;;;;;;;3.36;76.58;98870.13;4159815;28;20446;-72
2023/03/29 00:28:26;;;;;;;2.72;1.65;;;;;;;3.37;76.61;98863.50;4162119;28;20084;-72
2023/03/29 00:30:26;;;;;;;3.72;2.10;;;;;;;3.37;78.95;98865.44;4162007;28;20073;-72
2023/03/29 00:32:26;;;;;;;6.25;2.72;;;;;;;3.38;76.97;98870.59;4160046;28;20033;-72
2023/03/29 00:34:30;;;;;;;3.90;1.88;;;;;;;3.40;77.29;98873.03;4161028;28;20085;-72
2023/03/29 00:36:30;;;;;;;3.50;1.83;;;;;;;3.37;77.26;98852.56;4160312;28;20156;-72
2023/03/29 00:38:31;;;;;;;4.13;1.80;;;;;;;3.32;79.04;98877.38;4160171;28;20092;-72
2023/03/29 00:40:33;;;;;;;3.45;2.13;;;;;;;3.40;80.25;98864.81;4161683;28;20045;-72
2023/03/29 00:42:33;;;;;;;6.87;2.27;;;;;;;3.36;80.87;98867.38;4159802;28;20057;-72
2023/03/29 00:45:00;;;;;;;4.25;2.50;;;;;;;3.37;83.40;98863.50;4161165;28;20292;-72
2023/03/29 00:47:00;;;;;;;7.30;2.47;;;;;;;3.44;83.12;98864.97;4161713;28;20103;-72
2023/03/29 00:49:06;;;;;;;3.55;2.03;;;;;;;3.38;83.62;98854.19;4160509;28;20072;-72
2023/03/29 00:51:10;;;;;;;5.85;2.67;;;;;;;3.30;84.10;98841.31;4158826;28;20069;-72
2023/03/29 00:53:25;;;;;;;6.07;2.17;;;;;;;3.29;83.58;98844.38;4163633;28;20460;-72
2023/03/29 00:55:28;;;;;;;3.97;2.38;;;;;;;3.28;84.80;98845.50;4161444;28;20084;-72
2023/03/29 00:57:30;;;;;;;4.30;2.17;;;;;;;3.23;84.46;98843.75;4159855;28;20076;-72
2023/03/29 00:59:31;;;;;;;8.45;2.47;;;;;;;3.25;84.89;98849.69;4159658;28;20518;-72
2023/03/29 01:01:53;;;;;;;5.00;2.40;;;;;;;3.14;85.62;98847.56;4160929;28;20084;-72
2023/03/29 01:04:01;;;;;;;4.10;2.28;;;;;;;3.05;87.12;98845.63;4160143;28;20084;-72
2023/03/29 01:06:08;;;;;;;6.00;2.20;;;;;;;3.03;87.25;98842.41;4159295;28;20045;-72
2023/03/29 01:08:33;;;;;;;3.95;2.20;;;;;;;3.03;88.11;98836.13;4160864;28;20040;-72
2023/03/29 01:10:40;;;;;;;5.93;2.20;;;;;;;2.96;88.63;98841.28;4158993;28;20183;-72
2023/03/29 01:12:47;;;;;;;3.53;2.28;;;;;;;2.94;88.98;98832.59;4158207;28;20056;-72
2023/03/29 01:14:54;;;;;;;2.83;2.30;;;;;;;2.88;89.78;98839.31;4165645;28;20064;-72
2023/03/29 01:16:54;;;;;;;5.10;1.88;;;;;;;2.83;90.34;98829.38;4158758;28;20711;-72
2023/03/29 01:18:57;;;;;;;4.68;2.00;;;;;;;2.79;90.85;98820.19;4159938;28;20042;-72
2023/03/29 01:21:14;;;;;;;8.43;2.22;;;;;;;2.77;91.38;98825.97;4160380;28;20043;-72
2023/03/29 01:23:49;;;;;;;6.05;2.25;;;;;;;2.77;91.25;98828.69;4158966;28;20054;-72
2023/03/29 01:26:18;;;;;;;6.82;2.28;;;;;;;2.78;92.26;98826.78;4163852;28;20135;-72
2023/03/29 01:28:28;;;;;;;3.63;2.25;;;;;;;2.75;92.58;98805.56;4158995;28;20346;-72
2023/03/29 01:30:37;;;;;;;2.63;1.80;;;;;;;2.73;93.11;98810.50;4159915;28;20064;-72
2023/03/29 01:32:49;;;;;;;5.10;1.95;;;;;;;2.64;94.72;98801.50;4159344;28;20052;-72
2023/03/29 01:35:09;;;;;;;5.00;2.63;;;;;;;2.60;94.57;98798.59;4160274;28;20045;-72
2023/03/29 01:37:23;;;;;;;4.63;2.30;;;;;;;2.58;95.51;98786.41;4159368;28;20053;-72
2023/03/29 01:39:23;;;;;;;3.20;2.25;;;;;;;2.52;96.32;98777.53;4158864;28;20076;-71
2023/03/29 01:41:51;;;;;;;3.30;2.08;;;;;;;2.48;96.73;98782.84;4174850;28;20135;-72
2023/03/29 01:44:01;;;;;;;2.97;2.13;;;;;;;2.46;97.49;98779.59;4160301;28;20515;-72
2023/03/29 01:46:19;;;;;;;6.43;2.75;;;;;;;2.48;97.61;98771.09;4158906;28;20068;-72
2023/03/29 01:48:34;;;;;;;5.22;2.13;;;;;;;2.53;96.59;98762.75;4160094;28;20017;-72
2023/03/29 01:50:38;;;;;;;3.13;2.17;;;;;;;2.54;96.78;98767.91;4160061;28;20736;-72
2023/03/29 01:52:47;;;;;;;3.80;2.38;;;;;;;2.54;96.30;98762.44;4159342;28;20140;-72
2023/03/29 01:55:01;;;;;;;4.22;2.15;;;;;;;2.55;96.34;98763.22;4165177;28;20218;-72
2023/03/29 01:57:04;;;;;;;3.67;2.20;;;;;;;2.59;95.91;98757.97;4158640;28;20063;-72
2023/03/29 01:59:11;;;;;;;3.50;2.08;;;;;;;2.59;97.14;98760.69;4160976;28;20038;-72
2023/03/29 02:01:17;;;;;;;2.60;2.05;;;;;;;2.58;98.04;98762.63;4159733;28;20053;-72
2023/03/29 02:03:20;;;;;;;3.80;2.33;;;;;;;2.59;97.15;98752.50;4159914;28;20501;-72
2023/03/29 02:05:23;;;;;;;3.22;2.03;;;;;;;2.60;96.83;98754.09;4161010;28;20386;-72
2023/03/29 02:07:25;;;;;;;;;;;;;;;2.63;96.32;98756.97;4159488;28;20037;-72
2023/03/29 02:09:28;;;;;;;3.33;2.17;;;;;;;2.62;96.88;98749.91;4159195;28;19927;-72
2023/03/29 02:11:28;;;;;;;;;;;;;;;2.63;98.76;98745.25;4160184;28;20064;-72
2023/03/29 02:13:28;;;;;;;4.68;2.10;;;;;;;2.63;97.84;98740.59;4158536;28;19923;-72
2023/03/29 02:15:29;;;;;;;3.97;2.83;;;;;;;2.61;99.87;98736.59;4160021;28;20042;-72
2023/03/29 02:17:29;;;;;;;6.05;2.53;;;;;;;2.62;98.60;98738.19;4165378;28;20080;-72
2023/03/29 02:19:29;;;;;;;3.80;2.33;;;;;;;2.63;97.75;98742.53;4160450;28;20462;-72
2023/03/29 02:21:39;;;;;;;4.53;2.42;;;;;;;2.62;99.05;98730.78;4159206;28;20537;-72
2023/03/29 02:23:44;;;;;;;4.40;2.75;;;;;;;2.60;98.91;98727.59;4162519;28;20045;-72
2023/03/29 02:25:45;;;;;;;4.00;2.20;;;;;;;2.59;98.57;98725.19;4161778;28;20504;-72
2023/03/29 02:27:45;;;;;;;2.78;2.00;;;;;;;2.60;98.58;98724.84;4166008;28;20061;-72
2023/03/29 02:29:46;;;;;;;3.00;2.35;;;;;;;2.60;98.48;98724.84;4167306;28;20160;-72
2023/03/29 02:31:54;;;;;;;4.05;2.22;;;;;;;2.59;98.15;98720.50;4165919;28;20511;-72
2023/03/29 02:34:06;;;;;;;3.65;2.50;;;;;;;2.59;100.00;98725.97;4161098;28;20053;-72
2023/03/29 02:36:14;;;;;;;5.85;2.60;;;;;;;2.53;100.00;98706.19;4163133;28;20045;-72
2023/03/29 02:38:16;;;;;;;3.35;2.00;;;;;;;2.55;99.32;98711.34;4162424;28;20366;-72
2023/03/29 02:40:19;;;;;;;4.75;2.95;;;;;;;2.53;99.70;98710.84;4163336;28;20474;-72
2023/03/29 02:42:23;;;;;;;3.25;2.47;;;;;;;2.54;99.54;98715.19;4161061;28;20033;-72
2023/03/29 02:44:26;;;;;;;4.63;2.50;;;;;;;2.52;100.00;98717.44;4162258;28;20098;-72
2023/03/29 02:46:27;;;;;;;5.15;2.80;;;;;;;2.52;100.00;98712.78;4162044;28;20243;-72
2023/03/29 02:48:29;;;;;;;4.10;2.63;;;;;;;2.50;100.00;98698.66;4179797;28;20369;-72
2023/03/29 02:50:33;;;;;;;;;;;;;;;2.55;100.00;98711.34;4162593;28;20080;-72
2023/03/29 02:52:38;;;;;;;3.60;2.40;;;;;;;2.58;100.00;98697.06;4161303;28;19921;-72
2023/03/29 02:54:42;;;;;;;4.53;2.50;;;;;;;2.59;99.18;98692.41;4162090;28;20557;-72
2023/03/29 02:56:45;;;;;;;7.40;3.80;;;;;;;2.61;100.00;98692.88;4160764;28;20094;-72
2023/03/29 02:58:45;;;;;;;4.70;2.70;;;;;;;2.62;99.85;98695.28;4162592;28;20037;-72
2023/03/29 03:00:47;;;;;;;5.03;2.65;;;;;;;2.63;100.00;98690.63;4161987;28;20048;-72
2023/03/29 03:02:49;;;;;;;4.43;2.65;;;;;;;2.62;100.00;98683.56;4160904;28;20041;-72
2023/03/29 03:04:50;;;;;;;3.22;2.70;;;;;;;2.60;100.00;98674.88;4161639;28;20037;-72
2023/03/29 03:06:51;;;;;;;5.38;2.92;;;;;;;2.60;100.00;98674.88;4166372;28;20519;-72
2023/03/29 03:08:51;;;;;;;3.53;2.60;;;;;;;2.59;100.00;98667.81;4161586;28;20055;-72
2023/03/29 03:10:52;;;;;;;5.13;3.50;;;;;;;2.61;100.00;98671.81;4162366;28;20485;-72
2023/03/29 03:12:53;;;;;;;4.65;2.55;;;;;;;2.61;100.00;98676.47;4160533;28;20041;-72
2023/03/29 03:14:53;;;;;;;5.05;2.72;;;;;;;2.64;100.00;98673.09;4161485;28;20125;-72
2023/03/29 03:16:54;;;;;;;6.35;2.72;;;;;;;2.65;100.00;98680.16;4163852;28;20485;-72
2023/03/29 03:18:54;;;;;;;4.78;3.35;;;;;;;2.63;100.00;98674.22;4161384;28;20049;-72
2023/03/29 03:21:00;;;;;;;5.03;2.78;;;;;;;2.64;100.00;98673.91;4161178;28;20045;-72
2023/03/29 03:23:02;;;;;;;4.35;3.13;;;;;;;2.64;100.00;98673.09;4160419;28;20047;-72
2023/03/29 03:25:02;;;;;;;4.60;3.23;;;;;;;2.63;100.00;98677.75;4161769;28;20466;-73
2023/03/29 03:27:03;;;;;;;4.60;3.17;;;;;;;2.62;100.00;98659.75;4161411;28;20067;-72
2023/03/29 03:29:04;;;;;;;5.63;3.20;;;;;;;2.62;100.00;98667.16;4161480;28;20425;-72
2023/03/29 03:31:05;;;;;;;6.38;3.08;;;;;;;2.59;100.00;98665.88;4161868;28;20049;-73
2023/03/29 03:33:05;;;;;;;4.43;2.88;;;;;;;2.61;100.00;98663.63;4160399;28;20137;-72
2023/03/29 03:35:06;;;;;;;4.75;2.70;;;;;;;2.65;100.00;98659.13;4160547;28;20405;-72
2023/03/29 03:37:06;;;;;;;5.13;3.33;;;;;;;2.67;100.00;98664.28;4160489;28;20041;-72
2023/03/29 03:39:06;;;;;;;5.72;3.13;;;;;;;2.66;100.00;98658.00;4162478;28;20091;-72
2023/03/29 03:41:07;;;;;;;4.32;2.83;;;;;;;2.63;100.00;98663.28;4161286;28;20111;-72
2023/03/29 03:43:08;;;;;;;3.95;2.67;;;;;;;2.62;100.00;98657.03;4159566;28;20041;-72
2023/03/29 03:45:09;;;;;;;5.22;3.35;;;;;;;2.64;100.00;98657.50;4166985;28;20044;-72
2023/03/29 03:47:12;;;;;;;4.78;3.55;;;;;;;2.62;100.00;98656.22;4162232;28;20448;-72
2023/03/29 03:49:12;;;;;;;6.75;3.47;;;;;;;2.63;100.00;98655.09;4161600;28;20382;-72
2023/03/29 03:51:13;;;;;;;5.13;3.83;;;;;;;2.61;100.00;98658.16;4160819;28;20053;-72
2023/03/29 03:53:13;;;;;;;6.97;3.60;;;;;;;2.65;100.00;98653.69;4160758;28;20052;-72
2023/03/29 03:55:15;;;;;;;5.25;3.67;;;;;;;2.67;100.00;98661.56;4161039;28;20096;-72
2023/03/29 03:57:15;;;;;;;5.53;3.75;;;;;;;2.68;100.00;98653.03;4160487;28;20030;-72
2023/03/29 03:59:16;;;;;;;6.72;3.28;;;;;;;2.74;100.00;98650.94;4161986;28;20049;-72
2023/03/29 04:01:16;;;;;;;4.72;3.50;;;;;;;2.80;100.00;98647.69;4165671;28;20131;-72
2023/03/29 04:03:17;;;;;;;6.10;3.65;;;;;;;2.80;100.00;98657.84;4161810;28;20049;-72
2023/03/29 04:05:18;;;;;;;5.65;3.38;;;;;;;2.80;100.00;98653.16;4160173;28;20049;-72
2023/03/29 04:07:19;;;;;;;5.88;3.67;;;;;;;2.82;100.00;98655.59;4181575;28;20100;-73
2023/03/29 04:09:19;;;;;;;7.00;3.35;;;;;;;2.78;100.00;98644.50;4165534;28;20509;-73
2023/03/29 04:11:19;;;;;;;6.28;4.00;;;;;;;2.86;100.00;98656.56;4161308;28;20069;-72
2023/03/29 04:13:21;;;;;;;5.68;3.20;;;;;;;2.87;100.00;98646.41;4160128;28;20056;-72
2023/03/29 04:15:21;;;;;;;7.97;3.63;;;;;;;2.85;100.00;98635.81;4161534;28;20336;-72
2023/03/29 04:17:22;;;;;;;7.78;4.68;;;;;;;2.83;100.00;98640.81;4160991;28;20494;-72
2023/03/29 04:19:22;;;;;;;5.80;4.03;;;;;;;2.81;100.00;98632.09;4160522;28;20053;-72
2023/03/29 04:21:22;;;;;;;5.65;3.40;;;;;;;2.80;100.00;98639.50;4163311;28;20060;-72
2023/03/29 04:23:23;;;;;;;4.68;3.50;;;;;;;2.77;100.00;98637.44;4161857;28;20065;-71
2023/03/29 04:25:24;;;;;;;5.57;3.85;;;;;;;2.75;100.00;98638.88;4159843;28;20041;-72
2023/03/29 04:27:24;;;;;;;4.75;3.70;;;;;;;2.74;100.00;98640.81;4160411;28;20065;-72
2023/03/29 04:29:24;;;;;;;4.25;3.47;;;;;;;2.73;100.00;98639.22;4161928;28;20054;-72
2023/03/29 04:31:25;;;;;;;4.93;3.75;;;;;;;2.73;100.00;98628.28;4161753;28;20375;-72
2023/03/29 04:33:27;;;;;;;5.68;3.85;;;;;;;2.71;100.00;98624.25;4159032;28;20040;-72
2023/03/29 04:35:28;;;;;;;5.35;3.85;;;;;;;2.71;100.00;98624.25;4159966;28;20042;-72
2023/03/29 04:37:28;;;;;;;7.60;4.20;;;;;;;2.69;100.00;98623.78;4160807;28;20041;-72
2023/03/29 04:39:30;;;;;;;7.43;4.25;;;;;;;2.69;100.00;98621.03;4161694;28;20118;-73
2023/03/29 04:41:31;;;;;;;6.32;4.55;;;;;;;2.71;100.00;98625.03;4162208;28;20068;-72
2023/03/29 04:43:31;;;;;;;6.80;4.20;;;;;;;2.71;100.00;98614.13;4159395;28;20053;-72
2023/03/29 04:45:32;;;;;;;7.88;4.13;;;;;;;2.73;100.00;98622.00;4160721;28;20041;-72
2023/03/29 04:47:35;;;;;;;8.65;4.00;;;;;;;2.77;100.00;98617.50;4159211;28;20037;-72
2023/03/29 04:49:35;;;;;;;5.90;3.78;;;;;;;2.77;100.00;98617.50;4159692;28;20099;-72
2023/03/29 04:51:36;;;;;;;4.40;3.28;;;;;;;2.77;100.00;98612.84;4161375;28;20049;-72
2023/03/29 04:53:36;;;;;;;5.05;3.38;;;;;;;2.76;100.00;98619.44;4158560;28;20045;-72
2023/03/29 04:55:36;;;;;;;4.78;3.40;;;;;;;2.82;100.00;98617.34;4110752;28;20048;-72
2023/03/29 04:57:36;;;;;;;6.30;3.63;;;;;;;2.83;100.00;98618.16;4160375;28;20053;-72
2023/03/29 04:59:37;;;;;;;9.55;3.70;;;;;;;2.87;100.00;98619.09;4160343;28;20038;-72
2023/03/29 05:01:38;;;;;;;5.57;3.72;;;;;;;2.94;100.00;98614.75;4161349;28;20429;-72
2023/03/29 05:03:38;;;;;;;3.75;3.20;;;;;;;2.97;100.00;98619.53;4158956;28;20037;-72
2023/03/29 05:05:40;;;;;;;3.55;2.78;;;;;;;3.05;100.00;98609.72;4161482;28;20078;-72
2023/03/29 05:07:40;;;;;;;4.80;3.13;;;;;;;3.13;100.00;98611.63;4159266;28;20056;-72
2023/03/29 05:09:41;;;;;;;3.70;2.67;;;;;;;3.08;100.00;98607.16;4159381;28;20452;-72
2023/03/29 05:11:42;;;;;;;5.25;3.17;;;;;;;3.08;100.00;98607.16;4161536;28;20140;-72
2023/03/29 05:13:42;;;;;;;6.32;3.10;;;;;;;3.14;100.00;98606.97;4160176;28;20304;-72
2023/03/29 05:15:42;;;;;;;3.80;2.88;;;;;;;3.15;100.00;98608.59;4159846;28;20170;-72
2023/03/29 05:17:43;;;;;;;5.25;3.33;;;;;;;3.17;100.00;98606.34;4160439;28;20191;-72
2023/03/29 05:19:43;;;;;;;5.65;3.38;;;;;;;3.18;100.00;98605.19;4159615;28;20048;-72
2023/03/29 05:21:43;;;;;;;5.38;3.28;;;;;;;3.16;100.00;98599.25;4162112;28;20053;-72
2023/03/29 05:23:44;;;;;;;7.22;3.55;;;;;;;3.13;100.00;98597.16;4160935;28;20052;-72
2023/03/29 05:25:46;;;;;;;10.70;3.42;;;;;;;3.17;100.00;98595.41;4160478;28;20052;-72
2023/03/29 05:27:46;;;;;;;4.95;3.63;;;;;;;3.14;100.00;98599.56;4160486;28;20104;-72
2023/03/29 05:29:47;;;;;;;4.63;3.42;;;;;;;3.13;100.00;98600.69;4159060;28;20041;-72
2023/03/29 05:31:48;;;;;;;4.18;3.28;;;;;;;3.20;100.00;98600.19;4165925;28;20086;-72
2023/03/29 05:33:49;;;;;;;6.68;3.50;;;;;;;3.19;100.00;98593.13;4160977;28;20041;-72
2023/03/29 05:36:01;;;;;;;6.78;3.53;;;;;;;3.24;100.00;98601.16;4159214;28;20640;-72
2023/03/29 05:38:03;;;;;;;6.38;3.58;;;;;;;3.28;100.00;98593.91;4158667;28;20029;-72
2023/03/29 05:40:06;;;;;;;6.20;3.72;;;;;;;3.24;100.00;98588.31;4163428;28;20108;-72
2023/03/29 05:42:09;;;;;;;4.70;3.40;;;;;;;3.24;99.57;98585.56;4157464;28;20040;-72
2023/03/29 05:44:10;;;;;;;7.35;4.22;;;;;;;3.29;99.86;98596.31;4157647;28;20030;-72
2023/03/29 05:46:11;;;;;;;6.03;3.83;;;;;;;3.31;99.41;98598.72;4158945;28;20140;-72
2023/03/29 05:48:12;;;;;;;5.05;3.50;;;;;;;3.28;99.75;98594.72;4159500;28;20065;-72
2023/03/29 05:50:12;;;;;;;8.90;3.85;;;;;;;3.26;99.47;98594.25;4158798;28;20489;-72
2023/03/29 05:52:13;;;;;;;7.85;3.85;;;;;;;3.28;99.37;98594.72;4158327;28;20585;-73
2023/03/29 05:54:14;;;;;;;6.93;3.88;;;;;;;3.38;99.06;98601.75;4157635;28;20029;-72
2023/03/29 05:56:15;;;;;;;6.22;3.50;;;;;;;3.39;99.54;98589.66;4159146;28;20037;-72
2023/03/29 05:58:19;;;;;;;8.20;4.03;;;;;;;3.37;98.84;98581.00;4161776;28;20025;-72
2023/03/29 06:00:22;;;;;;;5.60;3.55;;;;;;;3.38;98.62;98582.59;4165355;28;20033;-72
2023/03/29 06:02:24;;;;;;;7.05;3.90;;;;;;;3.39;98.24;98586.94;4176277;28;20037;-73
2023/03/29 06:04:25;;;;;;;4.97;3.55;;;;;;;3.47;97.79;98590.78;4162303;28;20041;-73
2023/03/29 06:06:25;;;;;;;6.05;4.28;;;;;;;3.51;97.69;98594.47;4162857;28;20056;-72
2023/03/29 06:08:26;;;;;;;8.02;4.22;;;;;;;3.56;97.92;98597.84;4164365;28;20045;-72
2023/03/29 06:10:27;;;;;;;6.30;3.72;;;;;;;3.54;97.34;98604.75;4164287;28;20042;-72
2023/03/29 06:12:27;;;;;;;5.65;4.43;;;;;;;3.52;97.95;98596.88;4162743;28;20046;-72
2023/03/29 06:14:28;;;;;;;7.65;4.30;;;;;;;3.52;97.42;98590.59;4163025;28;20040;-72
2023/03/29 06:16:29;;;;;;;6.70;4.25;;;;;;;3.53;97.80;98592.19;4161842;28;20041;-72
2023/03/29 06:18:31;;;;;;;6.75;4.68;;;;;;;3.52;97.83;98585.13;4163330;28;20096;-72
2023/03/29 06:20:31;;;;;;;8.18;4.75;;;;;;;3.56;97.75;98588.81;4169071;28;20538;-72
2023/03/29 06:22:32;;;;;;;6.95;4.72;;;;;;;3.59;96.82;98590.88;4170349;28;20456;-72
2023/03/29 06:24:32;;;;;;;7.47;4.35;;;;;;;3.64;97.74;98585.22;4161126;28;20059;-72
2023/03/29 06:26:32;;;;;;;6.95;4.80;;;;;;;3.66;97.37;98591.19;4162482;28;20030;-73
2023/03/29 06:28:33;;;;;;;7.05;4.30;;;;;;;3.65;97.13;98576.69;4162452;28;20041;-72
2023/03/29 06:30:33;;;;;;;6.95;4.22;;;;;;;3.71;97.30;98587.44;4161759;28;20053;-72
2023/03/29 06:32:34;;;;;;;5.35;3.97;;;;;;;3.71;96.66;98588.25;4161804;28;20048;-72
2023/03/29 06:34:35;;;;;;;6.65;4.25;;;;;;;3.74;97.34;98590.34;4165874;28;20072;-72
2023/03/29 06:36:35;;;;;;;6.43;4.20;;;;;;;3.79;96.98;98592.06;4161995;28;20045;-72
2023/03/29 06:38:35;;;;;;;8.48;4.50;;;;;;;3.84;96.58;98583.69;4161806;28;20056;-72
2023/03/29 06:40:38;;;;;;;6.25;4.03;;;;;;;3.87;96.94;98583.81;4162604;28;20121;-72
2023/03/29 06:42:38;;;;;;;5.72;3.58;;;;;;;3.87;96.33;98588.47;4166399;28;20371;-72
2023/03/29 06:44:38;;;;;;;4.97;3.70;;;;;;;3.92;96.94;98593.78;4161668;28;20409;-72
2023/03/29 06:46:38;;;;;;;6.50;3.90;;;;;;;3.95;96.57;98587.63;4162332;28;20116;-72
2023/03/29 06:48:39;;;;;;;5.22;3.47;;;;;;;4.03;96.78;98591.44;4162816;28;20041;-72
2023/03/29 06:50:40;;;;;;;7.10;4.80;;;;;;;4.06;97.52;98591.59;4161438;28;20045;-72
2023/03/29 06:52:40;;;;;;;5.45;3.78;;;;;;;4.15;97.32;98580.59;4166946;28;20030;-72
2023/03/29 06:54:40;;;;;;;5.35;3.53;;;;;;;4.21;97.24;98585.50;4161712;28;20486;-72
2023/03/29 06:56:41;;;;;;;4.95;3.25;;;;;;;4.34;96.91;98586.41;4163023;28;20129;-72
2023/03/29 06:58:41;;;;;;;5.70;3.42;;;;;;;4.40;96.50;98590.53;4161197;28;20366;-72
2023/03/29 07:00:42;;;;;;;7.38;3.75;;;;;;;4.41;97.12;98594.88;4162174;28;20053;-72
2023/03/29 07:02:42;;;;;;;4.50;3.30;;;;;;;4.44;96.89;98591.47;4160728;28;20128;-72
2023/03/29 07:04:43;;;;;;;5.72;3.15;;;;;;;4.46;95.22;98591.91;4166890;28;20037;-72
2023/03/29 07:06:47;;;;;;;6.38;3.80;;;;;;;4.43;96.05;98591.81;4162069;28;20045;-72
2023/03/29 07:08:51;;;;;;;4.65;3.55;;;;;;;4.48;97.47;98595.16;4160159;28;20045;-72
2023/03/29 07:10:52;;;;;;;11.95;3.97;;;;;;;4.57;97.88;98594.28;4161751;28;20456;-72
2023/03/29 07:12:53;;;;;;;9.77;3.80;;;;;;;4.62;97.19;98594.06;4164057;28;20056;-72
2023/03/29 07:14:53;;;;;;;8.55;3.85;;;;;;;4.66;98.19;98593.06;4167687;28;20511;-72
2023/03/29 07:16:54;;;;;;;8.25;4.30;;;;;;;4.74;97.54;98605.88;4162504;28;20053;-72
2023/03/29 07:18:55;;;;;;;6.40;3.63;;;;;;;4.76;96.49;98597.31;4163811;28;20060;-72
2023/03/29 07:20:56;;;;;;;5.18;3.63;;;;;;;4.79;97.76;98602.91;4161762;28;20155;-72
2023/03/29 07:22:56;;;;;;;8.00;3.90;;;;;;;4.81;97.52;98599.88;4159842;28;20413;-72
2023/03/29 07:24:58;;;;;;;9.75;3.67;;;;;;;4.86;97.64;98607.06;4161235;28;20091;-72
2023/03/29 07:27:00;;;;;;;6.38;3.42;;;;;;;4.87;96.85;98606.72;4161864;28;20057;-72
2023/03/29 07:29:01;;;;;;;5.47;3.20;;;;;;;4.82;96.87;98601.47;4161501;28;20096;-72
2023/03/29 07:31:06;;;;;;;6.60;3.47;;;;;;;4.83;96.45;98599.53;4160012;28;20037;-72
2023/03/29 07:33:08;;;;;;;6.38;3.28;;;;;;;4.93;96.87;98596.34;4161162;28;20114;-72
2023/03/29 07:35:09;;;;;;;6.25;4.10;;;;;;;4.95;96.73;98607.78;4161735;28;20041;-72
2023/03/29 07:37:09;;;;;;;4.90;3.47;;;;;;;4.95;95.43;98613.25;4160876;28;20470;-72
2023/03/29 07:39:12;;;;;;;4.68;3.47;;;;;;;5.05;96.74;98612.88;4161521;28;20148;-72
2023/03/29 07:41:13;;;;;;;4.93;3.10;;;;;;;5.05;95.60;98613.66;4163313;28;20407;-72
2023/03/29 07:43:13;;;;;;;7.03;3.70;;;;;;;5.06;96.21;98609.78;4160375;28;20128;-72
2023/03/29 07:45:19;;;;;;;5.10;3.50;;;;;;;5.12;96.62;98613.09;4165325;28;20033;-72
2023/03/29 07:47:19;;;;;;;4.75;3.25;;;;;;;5.16;95.84;98603.06;4162113;28;20045;-72
2023/03/29 07:49:20;;;;;;;7.38;3.53;;;;;;;5.23;96.13;98602.50;4164614;28;20037;-72
2023/03/29 07:51:20;;;;;;;6.13;3.80;;;;;;;5.30;95.07;98600.00;4160454;28;20515;-72
2023/03/29 07:53:21;;;;;;;5.13;3.78;;;;;;;5.35;94.64;98599.78;4160317;28;20038;-72
2023/03/29 07:55:22;;;;;;;6.63;3.75;;;;;;;5.40;94.35;98607.00;4160976;28;20509;-72
2023/03/29 07:57:23;;;;;;;5.78;2.85;;;;;;;5.45;94.21;98604.00;4165683;28;20220;-72
2023/03/29 07:59:24;;;;;;;5.75;3.00;;;;;;;5.51;93.87;98599.91;4160616;28;20045;-72
2023/03/29 08:01:24;;;;;;;4.40;3.00;;;;;;;5.54;93.97;98590.97;4160959;28;20041;-72
2023/03/29 08:03:26;;;;;;;4.93;3.15;;;;;;;5.57;94.82;98591.13;4159660;28;20075;-72
2023/03/29 08:05:26;;;;;;;4.50;3.17;;;;;;;5.64;92.24;98585.88;4161235;28;20046;-72
2023/03/29 08:07:27;;;;;;;5.20;3.90;;;;;;;5.68;92.30;98576.94;4160748;28;20072;-72
2023/03/29 08:09:27;;;;;;;5.30;3.85;;;;;;;5.69;92.48;98573.03;4162924;28;20073;-72
2023/03/29 08:11:27;;;;;;;3.83;3.17;;;;;;;5.72;91.55;98570.44;4160971;28;20243;-72
2023/03/29 08:13:28;;;;;;;4.68;3.42;;;;;;;5.77;91.59;98577.63;4159408;28;20136;-72
2023/03/29 08:15:28;;;;;;;6.00;3.10;;;;;;;5.79;92.04;98575.31;4161706;28;20060;-72
2023/03/29 08:17:28;;;;;;;4.53;3.20;;;;;;;5.87;91.69;98585.38;4162319;28;20339;-72
2023/03/29 08:19:29;;;;;;;4.97;3.75;;;;;;;5.97;90.79;98582.22;4163523;28;20196;-72
2023/03/29 08:21:30;;;;;;;5.35;3.30;;;;;;;5.91;90.09;98575.34;4160966;28;20120;-72
2023/03/29 08:23:30;;;;;;;4.30;3.20;;;;;;;5.98;90.70;98566.53;4159761;28;20881;-72
2023/03/29 08:25:31;;;;;;;4.97;3.35;;;;;;;5.91;91.60;98578.91;4143322;28;20042;-72
2023/03/29 08:27:32;;;;;;;5.63;3.35;;;;;;;6.03;90.26;98578.06;4159655;28;20128;-72
2023/03/29 08:29:32;;;;;;;4.93;3.75;;;;;;;6.21;91.17;98567.66;4165815;28;20061;-72
2023/03/29 08:31:32;;;;;;;5.43;3.22;;;;;;;6.29;90.44;98571.38;4159271;28;20395;-72
2023/03/29 08:33:33;;;;;;;4.45;3.45;;;;;;;6.38;90.16;98563.84;4159440;28;20046;-72
2023/03/29 08:35:33;;;;;;;5.93;3.42;;;;;;;6.45;89.04;98564.84;4167441;28;20498;-72
2023/03/29 08:37:35;;;;;;;4.50;3.30;;;;;;;6.52;90.03;98560.69;4162038;28;20053;-72
2023/03/29 08:39:36;;;;;;;4.55;3.28;;;;;;;6.61;90.82;98562.13;4160323;28;20049;-73
2023/03/29 08:42:01;;;;;;;6.93;4.57;;;;;;;6.79;90.52;98559.91;4160490;28;20045;-72
2023/03/29 08:44:16;;;;;;;6.05;3.63;;;;;;;6.95;90.90;98554.41;4159172;28;20041;-72
2023/03/29 08:46:22;;;;;;;4.25;3.00;;;;;;;7.07;89.04;98561.81;4160756;28;20036;-72
2023/03/29 08:48:29;;;;;;;8.52;3.45;;;;;;;7.24;88.84;98565.03;4160299;28;20533;-72
2023/03/29 08:50:37;;;;;;;5.97;3.60;;;;;;;7.48;87.49;98564.06;4160363;28;20041;-72
2023/03/29 08:52:51;;;;;;;5.28;2.72;;;;;;;7.64;83.37;98553.03;4159693;28;20627;-72
2023/03/29 08:54:56;;;;;;;5.95;3.03;;;;;;;7.70;83.52;98554.38;4160172;28;20045;-72
2023/03/29 08:57:06;;;;;;;5.30;3.53;;;;;;;7.83;83.08;98546.78;4159760;28;20036;-73
2023/03/29 08:59:18;;;;;;;6.63;3.53;;;;;;;7.86;81.59;98548.81;4160646;28;20144;-73
2023/03/29 09:01:20;;;;;;;9.07;2.92;;;;;;;7.84;80.82;98545.63;4162365;28;20055;-73
2023/03/29 09:03:28;;;;;;;4.70;3.28;;;;;;;7.95;83.36;98548.66;4161621;28;20057;-73
2023/03/29 09:05:33;;;;;;;5.40;2.72;;;;;;;8.00;82.36;98560.19;4159053;28;20580;-73
2023/03/29 09:07:34;;;;;;;7.07;4.43;;;;;;;8.07;81.35;98565.84;4160187;28;20057;-73
2023/03/29 09:09:34;;;;;;;5.78;3.05;;;;;;;8.05;80.90;98561.88;4159459;28;20373;-73
2023/03/29 09:11:40;;;;;;;4.70;2.90;;;;;;;8.04;81.32;98566.59;4160771;28;20393;-72
2023/03/29 09:14:06;;;;;;;3.90;3.20;;;;;;;8.07;80.62;98571.38;4160168;28;20055;-73
2023/03/29 09:16:18;;;;;;;7.10;3.47;;;;;;;8.11;81.23;98565.94;4160390;28;20030;-72
2023/03/29 09:18:48;;;;;;;5.47;3.05;;;;;;;8.07;79.88;98573.31;4160940;28;20098;-73
2023/03/29 09:20:52;;;;;;;7.15;4.03;;;;;;;8.20;78.98;98574.00;4159053;28;20276;-73
2023/03/29 09:23:11;;;;;;;6.72;3.90;;;;;;;8.22;79.94;98578.00;4159190;28;20111;-73
2023/03/29 09:25:25;;;;;;;4.43;3.28;;;;;;;8.26;79.90;98572.56;4160005;28;20037;-73
2023/03/29 09:27:31;;;;;;;6.05;3.70;;;;;;;8.33;79.53;98564.44;4160127;28;20041;-73
2023/03/29 09:29:55;;;;;;;4.63;3.53;;;;;;;8.41;78.70;98557.94;4159066;28;20037;-73
2023/03/29 09:31:55;;;;;;;4.47;3.17;;;;;;;8.51;80.23;98551.84;4159386;28;20393;-73
2023/03/29 09:34:10;;;;;;;4.53;3.10;;;;;;;8.65;79.13;98552.16;4158156;28;20029;-72
2023/03/29 09:36:17;;;;;;;5.93;3.88;;;;;;;8.77;80.39;98559.50;4159773;28;20033;-73
2023/03/29 09:38:20;;;;;;;7.53;3.28;;;;;;;8.77;78.32;98556.75;4159048;28;20026;-73
2023/03/29 09:40:22;;;;;;;;;;;;;;;8.78;77.04;98550.06;4159513;28;20370;-73
2023/03/29 09:42:26;;;;;;;5.78;3.55;;;;;;;8.82;80.05;98561.94;4160559;28;19917;-73
2023/03/29 09:44:36;;;;;;;7.28;4.13;;;;;;;8.87;79.46;98558.91;4162198;28;20384;-73